sensor_id;sensor_type;location;lat;lon;timestamp;temperature;humidity
70928;SHT31;58587;53.034;18.576;2024-01-16T00:00:49;-2.11;69.15
70928;SHT31;58587;53.034;18.576;2024-01-16T00:03:14;-2.17;68.12
70928;SHT31;58587;53.034;18.576;2024-01-16T00:05:40;-2.21;68.55
70928;SHT31;58587;53.034;18.576;2024-01-16T00:08:05;-2.27;68.46
70928;SHT31;58587;53.034;18.576;2024-01-16T00:10:30;-2.25;68.28
70928;SHT31;58587;53.034;18.576;2024-01-16T00:12:56;-2.25;68.51
70928;SHT31;58587;53.034;18.576;2024-01-16T00:15:21;-2.27;68.45
70928;SHT31;58587;53.034;18.576;2024-01-16T00:17:46;-2.28;68.93
70928;SHT31;58587;53.034;18.576;2024-01-16T00:20:12;-2.32;68.65
70928;SHT31;58587;53.034;18.576;2024-01-16T00:22:37;-2.32;69.46
70928;SHT31;58587;53.034;18.576;2024-01-16T00:25:03;-2.30;68.41
70928;SHT31;58587;53.034;18.576;2024-01-16T00:27:28;-2.35;69.07
70928;SHT31;58587;53.034;18.576;2024-01-16T00:29:53;-2.34;69.18
70928;SHT31;58587;53.034;18.576;2024-01-16T00:32:19;-2.42;69.59
70928;SHT31;58587;53.034;18.576;2024-01-16T00:34:44;-2.45;69.14
70928;SHT31;58587;53.034;18.576;2024-01-16T00:37:09;-2.45;68.93
70928;SHT31;58587;53.034;18.576;2024-01-16T00:39:35;-2.52;69.43
70928;SHT31;58587;53.034;18.576;2024-01-16T00:42:04;-2.55;70.00
70928;SHT31;58587;53.034;18.576;2024-01-16T00:44:29;-2.56;69.84
70928;SHT31;58587;53.034;18.576;2024-01-16T00:46:54;-2.62;69.67
70928;SHT31;58587;53.034;18.576;2024-01-16T00:49:20;-2.66;69.78
70928;SHT31;58587;53.034;18.576;2024-01-16T00:51:45;-2.66;69.96
70928;SHT31;58587;53.034;18.576;2024-01-16T00:54:11;-2.73;70.54
70928;SHT31;58587;53.034;18.576;2024-01-16T00:56:36;-2.77;70.25
70928;SHT31;58587;53.034;18.576;2024-01-16T00:59:02;-2.79;70.25
70928;SHT31;58587;53.034;18.576;2024-01-16T01:01:27;-2.83;70.11
70928;SHT31;58587;53.034;18.576;2024-01-16T01:03:53;-2.83;69.92
70928;SHT31;58587;53.034;18.576;2024-01-16T01:06:18;-2.82;69.60
70928;SHT31;58587;53.034;18.576;2024-01-16T01:08:44;-2.87;70.57
70928;SHT31;58587;53.034;18.576;2024-01-16T01:11:11;-2.86;69.96
70928;SHT31;58587;53.034;18.576;2024-01-16T01:13:36;-2.92;70.74
70928;SHT31;58587;53.034;18.576;2024-01-16T01:16:02;-2.99;70.73
70928;SHT31;58587;53.034;18.576;2024-01-16T01:18:27;-2.95;70.66
70928;SHT31;58587;53.034;18.576;2024-01-16T01:20:52;-2.97;70.95
70928;SHT31;58587;53.034;18.576;2024-01-16T01:23:17;-2.99;70.27
70928;SHT31;58587;53.034;18.576;2024-01-16T01:25:43;-3.00;70.37
70928;SHT31;58587;53.034;18.576;2024-01-16T01:28:08;-3.03;70.63
70928;SHT31;58587;53.034;18.576;2024-01-16T01:30:34;-3.11;70.49
70928;SHT31;58587;53.034;18.576;2024-01-16T01:32:59;-3.09;70.80
70928;SHT31;58587;53.034;18.576;2024-01-16T01:35:24;-3.11;70.42
70928;SHT31;58587;53.034;18.576;2024-01-16T01:37:50;-3.17;71.00
70928;SHT31;58587;53.034;18.576;2024-01-16T01:40:15;-3.24;71.39
70928;SHT31;58587;53.034;18.576;2024-01-16T01:42:41;-3.28;71.66
70928;SHT31;58587;53.034;18.576;2024-01-16T01:45:09;-3.27;71.32
70928;SHT31;58587;53.034;18.576;2024-01-16T01:47:34;-3.30;71.09
70928;SHT31;58587;53.034;18.576;2024-01-16T01:50:01;-3.27;71.06
70928;SHT31;58587;53.034;18.576;2024-01-16T01:52:28;-3.31;70.87
70928;SHT31;58587;53.034;18.576;2024-01-16T01:54:54;-3.36;71.65
70928;SHT31;58587;53.034;18.576;2024-01-16T01:57:19;-3.34;71.73
70928;SHT31;58587;53.034;18.576;2024-01-16T01:59:45;-3.41;72.40
70928;SHT31;58587;53.034;18.576;2024-01-16T02:02:11;-3.38;72.60
70928;SHT31;58587;53.034;18.576;2024-01-16T02:04:36;-3.46;72.00
70928;SHT31;58587;53.034;18.576;2024-01-16T02:07:04;-3.40;72.00
70928;SHT31;58587;53.034;18.576;2024-01-16T02:09:29;-3.44;72.34
70928;SHT31;58587;53.034;18.576;2024-01-16T02:11:55;-3.47;71.82
70928;SHT31;58587;53.034;18.576;2024-01-16T02:14:20;-3.52;72.09
70928;SHT31;58587;53.034;18.576;2024-01-16T02:16:45;-3.46;72.34
70928;SHT31;58587;53.034;18.576;2024-01-16T02:19:10;-3.50;71.69
70928;SHT31;58587;53.034;18.576;2024-01-16T02:21:41;-3.54;72.09
70928;SHT31;58587;53.034;18.576;2024-01-16T02:24:10;-3.55;71.75
70928;SHT31;58587;53.034;18.576;2024-01-16T02:26:38;-3.57;71.90
70928;SHT31;58587;53.034;18.576;2024-01-16T02:29:03;-3.58;71.94
70928;SHT31;58587;53.034;18.576;2024-01-16T02:31:30;-3.60;72.11
70928;SHT31;58587;53.034;18.576;2024-01-16T02:33:55;-3.61;72.07
70928;SHT31;58587;53.034;18.576;2024-01-16T02:36:21;-3.62;71.71
70928;SHT31;58587;53.034;18.576;2024-01-16T02:38:46;-3.61;71.70
70928;SHT31;58587;53.034;18.576;2024-01-16T02:41:13;-3.60;71.54
70928;SHT31;58587;53.034;18.576;2024-01-16T02:43:39;-3.60;72.09
70928;SHT31;58587;53.034;18.576;2024-01-16T02:46:05;-3.57;71.70
70928;SHT31;58587;53.034;18.576;2024-01-16T02:48:30;-3.60;71.66
70928;SHT31;58587;53.034;18.576;2024-01-16T02:50:55;-3.60;71.51
70928;SHT31;58587;53.034;18.576;2024-01-16T02:53:21;-3.55;71.71
70928;SHT31;58587;53.034;18.576;2024-01-16T02:55:46;-3.61;71.59
70928;SHT31;58587;53.034;18.576;2024-01-16T02:58:11;-3.61;71.91
70928;SHT31;58587;53.034;18.576;2024-01-16T03:00:37;-3.62;71.16
70928;SHT31;58587;53.034;18.576;2024-01-16T03:03:02;-3.67;71.56
70928;SHT31;58587;53.034;18.576;2024-01-16T03:05:27;-3.71;71.19
70928;SHT31;58587;53.034;18.576;2024-01-16T03:07:53;-3.74;71.22
70928;SHT31;58587;53.034;18.576;2024-01-16T03:10:19;-3.75;71.60
70928;SHT31;58587;53.034;18.576;2024-01-16T03:12:44;-3.71;71.39
70928;SHT31;58587;53.034;18.576;2024-01-16T03:15:09;-3.72;71.58
70928;SHT31;58587;53.034;18.576;2024-01-16T03:17:35;-3.71;71.62
70928;SHT31;58587;53.034;18.576;2024-01-16T03:20:00;-3.67;71.48
70928;SHT31;58587;53.034;18.576;2024-01-16T03:22:26;-3.67;71.54
70928;SHT31;58587;53.034;18.576;2024-01-16T03:24:51;-3.67;71.79
70928;SHT31;58587;53.034;18.576;2024-01-16T03:27:16;-3.67;72.41
70928;SHT31;58587;53.034;18.576;2024-01-16T03:29:42;-3.68;71.65
70928;SHT31;58587;53.034;18.576;2024-01-16T03:32:07;-3.71;71.68
70928;SHT31;58587;53.034;18.576;2024-01-16T03:34:33;-3.68;71.90
70928;SHT31;58587;53.034;18.576;2024-01-16T03:36:58;-3.67;72.21
70928;SHT31;58587;53.034;18.576;2024-01-16T03:39:23;-3.67;72.17
70928;SHT31;58587;53.034;18.576;2024-01-16T03:41:49;-3.68;72.15
70928;SHT31;58587;53.034;18.576;2024-01-16T03:44:14;-3.68;72.44
70928;SHT31;58587;53.034;18.576;2024-01-16T03:46:39;-3.70;72.51
70928;SHT31;58587;53.034;18.576;2024-01-16T03:49:05;-3.71;72.70
70928;SHT31;58587;53.034;18.576;2024-01-16T03:51:30;-3.70;72.76
70928;SHT31;58587;53.034;18.576;2024-01-16T03:53:55;-3.70;73.12
70928;SHT31;58587;53.034;18.576;2024-01-16T03:56:22;-3.74;72.96
70928;SHT31;58587;53.034;18.576;2024-01-16T03:58:47;-3.74;72.49
70928;SHT31;58587;53.034;18.576;2024-01-16T04:01:14;-3.74;72.91
70928;SHT31;58587;53.034;18.576;2024-01-16T04:03:39;-3.72;72.90
70928;SHT31;58587;53.034;18.576;2024-01-16T04:06:17;-3.75;73.05
70928;SHT31;58587;53.034;18.576;2024-01-16T04:08:42;-3.78;73.19
70928;SHT31;58587;53.034;18.576;2024-01-16T04:11:14;-3.78;73.69
70928;SHT31;58587;53.034;18.576;2024-01-16T04:13:41;-3.81;73.55
70928;SHT31;58587;53.034;18.576;2024-01-16T04:16:06;-3.81;74.05
70928;SHT31;58587;53.034;18.576;2024-01-16T04:18:39;-3.81;73.92
70928;SHT31;58587;53.034;18.576;2024-01-16T04:21:05;-3.77;74.81
70928;SHT31;58587;53.034;18.576;2024-01-16T04:23:30;-3.79;74.37
70928;SHT31;58587;53.034;18.576;2024-01-16T04:25:55;-3.85;74.26
70928;SHT31;58587;53.034;18.576;2024-01-16T04:28:21;-3.93;73.51
70928;SHT31;58587;53.034;18.576;2024-01-16T04:30:46;-3.89;73.52
70928;SHT31;58587;53.034;18.576;2024-01-16T04:33:11;-3.93;73.64
70928;SHT31;58587;53.034;18.576;2024-01-16T04:35:36;-4.02;73.62
70928;SHT31;58587;53.034;18.576;2024-01-16T04:38:02;-4.05;73.69
70928;SHT31;58587;53.034;18.576;2024-01-16T04:40:28;-4.03;73.79
70928;SHT31;58587;53.034;18.576;2024-01-16T04:42:53;-4.06;73.89
70928;SHT31;58587;53.034;18.576;2024-01-16T04:45:18;-4.10;73.89
70928;SHT31;58587;53.034;18.576;2024-01-16T04:47:44;-4.19;73.49
70928;SHT31;58587;53.034;18.576;2024-01-16T04:50:09;-4.22;73.58
70928;SHT31;58587;53.034;18.576;2024-01-16T04:52:35;-4.23;73.95
70928;SHT31;58587;53.034;18.576;2024-01-16T04:55:00;-4.23;73.74
70928;SHT31;58587;53.034;18.576;2024-01-16T04:57:25;-4.26;74.04
70928;SHT31;58587;53.034;18.576;2024-01-16T04:59:51;-4.27;74.47
70928;SHT31;58587;53.034;18.576;2024-01-16T05:02:16;-4.30;74.65
70928;SHT31;58587;53.034;18.576;2024-01-16T05:04:42;-4.37;74.07
70928;SHT31;58587;53.034;18.576;2024-01-16T05:07:07;-4.36;74.65
70928;SHT31;58587;53.034;18.576;2024-01-16T05:09:33;-4.40;74.41
70928;SHT31;58587;53.034;18.576;2024-01-16T05:11:58;-4.42;74.93
70928;SHT31;58587;53.034;18.576;2024-01-16T05:14:23;-4.43;75.10
70928;SHT31;58587;53.034;18.576;2024-01-16T05:16:51;-4.44;75.46
70928;SHT31;58587;53.034;18.576;2024-01-16T05:19:16;-4.54;76.20
70928;SHT31;58587;53.034;18.576;2024-01-16T05:21:41;-4.54;76.39
70928;SHT31;58587;53.034;18.576;2024-01-16T05:24:07;-4.53;76.11
70928;SHT31;58587;53.034;18.576;2024-01-16T05:26:33;-4.64;76.67
70928;SHT31;58587;53.034;18.576;2024-01-16T05:28:58;-4.66;76.63
70928;SHT31;58587;53.034;18.576;2024-01-16T05:31:24;-4.70;77.41
70928;SHT31;58587;53.034;18.576;2024-01-16T05:33:49;-4.73;77.67
70928;SHT31;58587;53.034;18.576;2024-01-16T05:36:14;-4.78;76.26
70928;SHT31;58587;53.034;18.576;2024-01-16T05:38:40;-4.84;77.55
70928;SHT31;58587;53.034;18.576;2024-01-16T05:41:06;-4.87;78.68
70928;SHT31;58587;53.034;18.576;2024-01-16T05:43:31;-4.91;78.99
70928;SHT31;58587;53.034;18.576;2024-01-16T05:45:56;-4.99;80.00
70928;SHT31;58587;53.034;18.576;2024-01-16T05:48:21;-5.02;79.64
70928;SHT31;58587;53.034;18.576;2024-01-16T05:50:47;-5.07;79.82
70928;SHT31;58587;53.034;18.576;2024-01-16T05:53:12;-5.05;80.29
70928;SHT31;58587;53.034;18.576;2024-01-16T05:55:37;-5.15;78.97
70928;SHT31;58587;53.034;18.576;2024-01-16T05:58:03;-5.16;79.46
70928;SHT31;58587;53.034;18.576;2024-01-16T06:00:28;-5.18;80.34
70928;SHT31;58587;53.034;18.576;2024-01-16T06:02:53;-5.26;80.93
70928;SHT31;58587;53.034;18.576;2024-01-16T06:05:19;-5.29;80.99
70928;SHT31;58587;53.034;18.576;2024-01-16T06:07:45;-5.36;81.64
70928;SHT31;58587;53.034;18.576;2024-01-16T06:10:14;-5.39;81.46
70928;SHT31;58587;53.034;18.576;2024-01-16T06:12:40;-5.38;81.84
70928;SHT31;58587;53.034;18.576;2024-01-16T06:15:06;-5.43;82.13
70928;SHT31;58587;53.034;18.576;2024-01-16T06:17:31;-5.48;81.92
70928;SHT31;58587;53.034;18.576;2024-01-16T06:19:57;-5.51;82.11
70928;SHT31;58587;53.034;18.576;2024-01-16T06:22:22;-5.53;82.03
70928;SHT31;58587;53.034;18.576;2024-01-16T06:24:47;-5.46;82.11
70928;SHT31;58587;53.034;18.576;2024-01-16T06:27:13;-5.52;82.00
70928;SHT31;58587;53.034;18.576;2024-01-16T06:29:47;-5.51;82.65
70928;SHT31;58587;53.034;18.576;2024-01-16T06:32:13;-5.56;82.88
70928;SHT31;58587;53.034;18.576;2024-01-16T06:34:38;-5.55;82.06
70928;SHT31;58587;53.034;18.576;2024-01-16T06:37:04;-5.53;81.69
70928;SHT31;58587;53.034;18.576;2024-01-16T06:39:29;-5.56;80.94
70928;SHT31;58587;53.034;18.576;2024-01-16T06:41:54;-5.49;81.83
70928;SHT31;58587;53.034;18.576;2024-01-16T06:44:20;-5.53;81.89
70928;SHT31;58587;53.034;18.576;2024-01-16T06:46:45;-5.55;82.46
70928;SHT31;58587;53.034;18.576;2024-01-16T06:49:10;-5.59;82.69
70928;SHT31;58587;53.034;18.576;2024-01-16T06:51:36;-5.60;83.09
70928;SHT31;58587;53.034;18.576;2024-01-16T06:54:01;-5.60;82.83
70928;SHT31;58587;53.034;18.576;2024-01-16T06:56:26;-5.62;82.03
70928;SHT31;58587;53.034;18.576;2024-01-16T06:58:52;-5.63;82.53
70928;SHT31;58587;53.034;18.576;2024-01-16T07:01:18;-5.64;83.90
70928;SHT31;58587;53.034;18.576;2024-01-16T07:03:43;-5.66;83.29
70928;SHT31;58587;53.034;18.576;2024-01-16T07:06:09;-5.76;83.09
70928;SHT31;58587;53.034;18.576;2024-01-16T07:08:34;-5.70;83.69
70928;SHT31;58587;53.034;18.576;2024-01-16T07:11:00;-5.70;83.37
70928;SHT31;58587;53.034;18.576;2024-01-16T07:13:26;-5.73;83.45
70928;SHT31;58587;53.034;18.576;2024-01-16T07:15:51;-5.76;82.91
70928;SHT31;58587;53.034;18.576;2024-01-16T07:18:16;-5.67;83.26
70928;SHT31;58587;53.034;18.576;2024-01-16T07:20:43;-5.64;83.53
70928;SHT31;58587;53.034;18.576;2024-01-16T07:23:08;-5.66;83.53
70928;SHT31;58587;53.034;18.576;2024-01-16T07:25:34;-5.64;83.08
70928;SHT31;58587;53.034;18.576;2024-01-16T07:27:59;-5.62;83.81
70928;SHT31;58587;53.034;18.576;2024-01-16T07:30:24;-5.62;83.14
70928;SHT31;58587;53.034;18.576;2024-01-16T07:32:49;-5.63;83.14
70928;SHT31;58587;53.034;18.576;2024-01-16T07:35:16;-5.58;83.13
70928;SHT31;58587;53.034;18.576;2024-01-16T07:37:41;-5.52;82.90
70928;SHT31;58587;53.034;18.576;2024-01-16T07:40:07;-5.40;83.20
70928;SHT31;58587;53.034;18.576;2024-01-16T07:42:34;-5.48;82.71
70928;SHT31;58587;53.034;18.576;2024-01-16T07:45:00;-5.39;83.25
70928;SHT31;58587;53.034;18.576;2024-01-16T07:47:32;-5.38;83.21
70928;SHT31;58587;53.034;18.576;2024-01-16T07:49:58;-5.32;83.30
70928;SHT31;58587;53.034;18.576;2024-01-16T07:52:23;-5.23;83.08
70928;SHT31;58587;53.034;18.576;2024-01-16T07:54:48;-5.23;82.36
70928;SHT31;58587;53.034;18.576;2024-01-16T07:57:14;-5.28;82.68
70928;SHT31;58587;53.034;18.576;2024-01-16T07:59:39;-5.26;82.60
70928;SHT31;58587;53.034;18.576;2024-01-16T08:02:06;-5.18;82.38
70928;SHT31;58587;53.034;18.576;2024-01-16T08:04:31;-5.11;82.46
70928;SHT31;58587;53.034;18.576;2024-01-16T08:06:57;-5.07;82.72
70928;SHT31;58587;53.034;18.576;2024-01-16T08:09:22;-5.05;82.17
70928;SHT31;58587;53.034;18.576;2024-01-16T08:11:48;-5.04;82.60
70928;SHT31;58587;53.034;18.576;2024-01-16T08:14:13;-4.91;82.51
70928;SHT31;58587;53.034;18.576;2024-01-16T08:16:38;-4.88;82.20
70928;SHT31;58587;53.034;18.576;2024-01-16T08:19:04;-4.80;82.06
70928;SHT31;58587;53.034;18.576;2024-01-16T08:21:29;-4.81;82.25
70928;SHT31;58587;53.034;18.576;2024-01-16T08:23:54;-4.80;81.51
70928;SHT31;58587;53.034;18.576;2024-01-16T08:26:19;-4.73;81.05
70928;SHT31;58587;53.034;18.576;2024-01-16T08:28:45;-4.67;81.67
70928;SHT31;58587;53.034;18.576;2024-01-16T08:31:10;-4.63;81.25
70928;SHT31;58587;53.034;18.576;2024-01-16T08:33:36;-4.58;80.83
70928;SHT31;58587;53.034;18.576;2024-01-16T08:36:02;-4.56;80.28
70928;SHT31;58587;53.034;18.576;2024-01-16T08:38:29;-4.44;80.84
70928;SHT31;58587;53.034;18.576;2024-01-16T08:40:54;-4.33;81.09
70928;SHT31;58587;53.034;18.576;2024-01-16T08:43:20;-4.25;80.41
70928;SHT31;58587;53.034;18.576;2024-01-16T08:45:45;-4.10;80.25
70928;SHT31;58587;53.034;18.576;2024-01-16T08:48:12;-4.05;78.97
70928;SHT31;58587;53.034;18.576;2024-01-16T08:50:40;-4.01;77.82
70928;SHT31;58587;53.034;18.576;2024-01-16T08:53:05;-3.92;77.80
70928;SHT31;58587;53.034;18.576;2024-01-16T08:55:32;-3.83;78.02
70928;SHT31;58587;53.034;18.576;2024-01-16T08:57:58;-3.82;77.46
70928;SHT31;58587;53.034;18.576;2024-01-16T09:00:23;-3.71;78.05
70928;SHT31;58587;53.034;18.576;2024-01-16T09:02:48;-3.74;77.29
70928;SHT31;58587;53.034;18.576;2024-01-16T09:05:14;-3.74;76.43
70928;SHT31;58587;53.034;18.576;2024-01-16T09:07:40;-3.68;76.86
70928;SHT31;58587;53.034;18.576;2024-01-16T09:10:06;-3.65;77.07
70928;SHT31;58587;53.034;18.576;2024-01-16T09:12:32;-3.72;76.51
70928;SHT31;58587;53.034;18.576;2024-01-16T09:14:58;-3.67;77.20
70928;SHT31;58587;53.034;18.576;2024-01-16T09:17:23;-3.57;77.27
70928;SHT31;58587;53.034;18.576;2024-01-16T09:19:50;-3.58;76.70
70928;SHT31;58587;53.034;18.576;2024-01-16T09:22:16;-3.68;76.20
70928;SHT31;58587;53.034;18.576;2024-01-16T09:24:41;-3.64;75.81
70928;SHT31;58587;53.034;18.576;2024-01-16T09:27:07;-3.52;76.31
70928;SHT31;58587;53.034;18.576;2024-01-16T09:29:34;-3.54;75.81
70928;SHT31;58587;53.034;18.576;2024-01-16T09:32:00;-3.51;75.46
70928;SHT31;58587;53.034;18.576;2024-01-16T09:34:25;-3.52;74.59
70928;SHT31;58587;53.034;18.576;2024-01-16T09:36:50;-3.38;75.69
70928;SHT31;58587;53.034;18.576;2024-01-16T09:39:16;-3.28;74.63
70928;SHT31;58587;53.034;18.576;2024-01-16T09:41:41;-3.27;73.91
70928;SHT31;58587;53.034;18.576;2024-01-16T09:44:08;-3.09;74.02
70928;SHT31;58587;53.034;18.576;2024-01-16T09:46:34;-2.92;74.95
70928;SHT31;58587;53.034;18.576;2024-01-16T09:49:01;-2.86;73.42
70928;SHT31;58587;53.034;18.576;2024-01-16T09:51:27;-2.85;72.54
70928;SHT31;58587;53.034;18.576;2024-01-16T09:53:53;-2.77;72.28
70928;SHT31;58587;53.034;18.576;2024-01-16T09:56:22;-2.80;72.54
70928;SHT31;58587;53.034;18.576;2024-01-16T09:58:50;-2.83;71.90
70928;SHT31;58587;53.034;18.576;2024-01-16T10:01:19;-2.87;71.13
70928;SHT31;58587;53.034;18.576;2024-01-16T10:03:45;-2.89;70.93
70928;SHT31;58587;53.034;18.576;2024-01-16T10:06:10;-2.93;71.39
70928;SHT31;58587;53.034;18.576;2024-01-16T10:08:37;-2.97;70.71
70928;SHT31;58587;53.034;18.576;2024-01-16T10:11:03;-2.87;71.01
70928;SHT31;58587;53.034;18.576;2024-01-16T10:13:28;-2.92;70.47
70928;SHT31;58587;53.034;18.576;2024-01-16T10:15:54;-2.90;70.73
70928;SHT31;58587;53.034;18.576;2024-01-16T10:18:27;-2.92;70.58
70928;SHT31;58587;53.034;18.576;2024-01-16T10:20:53;-2.92;70.92
70928;SHT31;58587;53.034;18.576;2024-01-16T10:23:32;-2.90;70.61
70928;SHT31;58587;53.034;18.576;2024-01-16T10:26:10;-2.85;70.33
70928;SHT31;58587;53.034;18.576;2024-01-16T10:28:37;-2.85;70.66
70928;SHT31;58587;53.034;18.576;2024-01-16T10:31:04;-2.75;69.71
70928;SHT31;58587;53.034;18.576;2024-01-16T10:33:30;-2.75;69.10
70928;SHT31;58587;53.034;18.576;2024-01-16T10:36:11;-2.62;69.56
70928;SHT31;58587;53.034;18.576;2024-01-16T10:38:42;-2.62;68.68
70928;SHT31;58587;53.034;18.576;2024-01-16T10:43:35;-2.54;68.35
70928;SHT31;58587;53.034;18.576;2024-01-16T10:46:11;-2.45;68.09
70928;SHT31;58587;53.034;18.576;2024-01-16T10:48:38;-2.32;68.02
70928;SHT31;58587;53.034;18.576;2024-01-16T10:51:05;-2.17;67.15
70928;SHT31;58587;53.034;18.576;2024-01-16T10:53:33;-2.12;66.64
70928;SHT31;58587;53.034;18.576;2024-01-16T10:56:00;-2.14;65.38
70928;SHT31;58587;53.034;18.576;2024-01-16T10:58:26;-2.07;65.56
70928;SHT31;58587;53.034;18.576;2024-01-16T11:01:01;-1.97;65.62
70928;SHT31;58587;53.034;18.576;2024-01-16T11:03:40;-1.86;64.74
70928;SHT31;58587;53.034;18.576;2024-01-16T11:06:09;-1.66;66.21
70928;SHT31;58587;53.034;18.576;2024-01-16T11:08:36;-1.63;63.83
70928;SHT31;58587;53.034;18.576;2024-01-16T11:11:02;-1.38;63.31
70928;SHT31;58587;53.034;18.576;2024-01-16T11:13:35;-1.35;62.25
70928;SHT31;58587;53.034;18.576;2024-01-16T11:16:02;-1.26;63.34
70928;SHT31;58587;53.034;18.576;2024-01-16T11:18:30;-1.31;61.96
70928;SHT31;58587;53.034;18.576;2024-01-16T11:20:56;-1.13;61.88
70928;SHT31;58587;53.034;18.576;2024-01-16T11:23:22;-1.04;62.42
70928;SHT31;58587;53.034;18.576;2024-01-16T11:25:48;-0.67;60.98
70928;SHT31;58587;53.034;18.576;2024-01-16T11:28:14;-0.34;60.23
70928;SHT31;58587;53.034;18.576;2024-01-16T11:30:42;-0.30;59.21
70928;SHT31;58587;53.034;18.576;2024-01-16T11:35:59;0.65;57.13
70928;SHT31;58587;53.034;18.576;2024-01-16T11:38:26;0.99;56.61
70928;SHT31;58587;53.034;18.576;2024-01-16T11:40:55;0.58;57.08
70928;SHT31;58587;53.034;18.576;2024-01-16T11:46:03;0.86;56.25
70928;SHT31;58587;53.034;18.576;2024-01-16T11:48:29;0.53;55.68
70928;SHT31;58587;53.034;18.576;2024-01-16T11:50:54;0.89;56.45
70928;SHT31;58587;53.034;18.576;2024-01-16T11:53:40;0.92;55.50
70928;SHT31;58587;53.034;18.576;2024-01-16T11:56:13;0.62;55.81
70928;SHT31;58587;53.034;18.576;2024-01-16T11:58:48;0.83;56.22
70928;SHT31;58587;53.034;18.576;2024-01-16T12:01:18;2.28;52.47
70928;SHT31;58587;53.034;18.576;2024-01-16T12:06:30;3.54;48.40
70928;SHT31;58587;53.034;18.576;2024-01-16T12:09:13;3.46;49.50
70928;SHT31;58587;53.034;18.576;2024-01-16T12:11:40;3.19;49.97
70928;SHT31;58587;53.034;18.576;2024-01-16T12:14:06;3.05;50.76
70928;SHT31;58587;53.034;18.576;2024-01-16T12:16:31;2.84;50.96
70928;SHT31;58587;53.034;18.576;2024-01-16T12:19:09;3.12;50.36
70928;SHT31;58587;53.034;18.576;2024-01-16T12:21:42;4.20;48.26
70928;SHT31;58587;53.034;18.576;2024-01-16T12:24:10;3.49;46.98
70928;SHT31;58587;53.034;18.576;2024-01-16T12:26:35;4.27;48.09
70928;SHT31;58587;53.034;18.576;2024-01-16T12:29:01;3.87;47.07
70928;SHT31;58587;53.034;18.576;2024-01-16T12:31:27;3.46;49.13
70928;SHT31;58587;53.034;18.576;2024-01-16T12:33:54;3.52;49.10
70928;SHT31;58587;53.034;18.576;2024-01-16T12:36:19;3.85;49.41
70928;SHT31;58587;53.034;18.576;2024-01-16T12:38:53;3.38;49.58
70928;SHT31;58587;53.034;18.576;2024-01-16T12:41:20;3.03;49.61
70928;SHT31;58587;53.034;18.576;2024-01-16T12:43:50;2.46;51.03
70928;SHT31;58587;53.034;18.576;2024-01-16T12:46:15;1.94;52.23
70928;SHT31;58587;53.034;18.576;2024-01-16T12:48:41;1.77;53.89
70928;SHT31;58587;53.034;18.576;2024-01-16T12:51:06;1.62;53.70
70928;SHT31;58587;53.034;18.576;2024-01-16T12:53:32;2.25;53.17
70928;SHT31;58587;53.034;18.576;2024-01-16T12:55:59;2.29;51.07
70928;SHT31;58587;53.034;18.576;2024-01-16T12:58:31;2.37;50.57
70928;SHT31;58587;53.034;18.576;2024-01-16T13:00:56;2.15;50.29
70928;SHT31;58587;53.034;18.576;2024-01-16T13:03:24;1.69;51.56
70928;SHT31;58587;53.034;18.576;2024-01-16T13:05:55;1.52;52.40
70928;SHT31;58587;53.034;18.576;2024-01-16T13:08:21;1.28;52.36
70928;SHT31;58587;53.034;18.576;2024-01-16T13:11:07;0.92;53.20
70928;SHT31;58587;53.034;18.576;2024-01-16T13:13:33;0.76;55.04
70928;SHT31;58587;53.034;18.576;2024-01-16T13:16:00;0.52;55.17
70928;SHT31;58587;53.034;18.576;2024-01-16T13:18:27;0.25;56.23
70928;SHT31;58587;53.034;18.576;2024-01-16T13:20:54;-0.10;56.27
70928;SHT31;58587;53.034;18.576;2024-01-16T13:23:20;-0.17;57.27
70928;SHT31;58587;53.034;18.576;2024-01-16T13:25:47;-0.33;56.59
70928;SHT31;58587;53.034;18.576;2024-01-16T13:28:17;-0.58;57.54
70928;SHT31;58587;53.034;18.576;2024-01-16T13:30:43;-0.77;57.53
70928;SHT31;58587;53.034;18.576;2024-01-16T13:33:08;-0.84;57.85
70928;SHT31;58587;53.034;18.576;2024-01-16T13:35:34;-0.83;58.40
70928;SHT31;58587;53.034;18.576;2024-01-16T13:38:01;-0.96;58.83
70928;SHT31;58587;53.034;18.576;2024-01-16T13:40:26;-0.96;59.25
70928;SHT31;58587;53.034;18.576;2024-01-16T13:42:52;-1.22;59.14
70928;SHT31;58587;53.034;18.576;2024-01-16T13:45:17;-1.19;60.49
70928;SHT31;58587;53.034;18.576;2024-01-16T13:47:43;-1.18;60.64
70928;SHT31;58587;53.034;18.576;2024-01-16T13:50:09;-1.24;61.59
70928;SHT31;58587;53.034;18.576;2024-01-16T13:52:35;-1.19;60.38
70928;SHT31;58587;53.034;18.576;2024-01-16T13:55:01;-1.38;60.43
70928;SHT31;58587;53.034;18.576;2024-01-16T13:57:31;-1.40;61.18
70928;SHT31;58587;53.034;18.576;2024-01-16T13:59:56;-1.39;62.32
70928;SHT31;58587;53.034;18.576;2024-01-16T14:02:21;-1.43;61.29
70928;SHT31;58587;53.034;18.576;2024-01-16T14:04:46;-1.38;62.13
70928;SHT31;58587;53.034;18.576;2024-01-16T14:07:12;-1.42;61.49
70928;SHT31;58587;53.034;18.576;2024-01-16T14:09:37;-1.55;61.57
70928;SHT31;58587;53.034;18.576;2024-01-16T14:12:03;-1.60;62.20
70928;SHT31;58587;53.034;18.576;2024-01-16T14:14:28;-1.63;62.67
70928;SHT31;58587;53.034;18.576;2024-01-16T14:16:54;-1.69;62.54
70928;SHT31;58587;53.034;18.576;2024-01-16T14:19:20;-1.77;63.59
70928;SHT31;58587;53.034;18.576;2024-01-16T14:21:45;-1.76;64.42
70928;SHT31;58587;53.034;18.576;2024-01-16T14:24:13;-1.76;63.37
70928;SHT31;58587;53.034;18.576;2024-01-16T14:26:42;-1.84;63.95
70928;SHT31;58587;53.034;18.576;2024-01-16T14:29:09;-1.84;63.54
70928;SHT31;58587;53.034;18.576;2024-01-16T14:31:34;-1.93;63.14
70928;SHT31;58587;53.034;18.576;2024-01-16T14:34:00;-1.97;63.76
70928;SHT31;58587;53.034;18.576;2024-01-16T14:36:25;-2.01;63.27
70928;SHT31;58587;53.034;18.576;2024-01-16T14:38:50;-2.05;62.99
70928;SHT31;58587;53.034;18.576;2024-01-16T14:41:16;-2.12;63.00
70928;SHT31;58587;53.034;18.576;2024-01-16T14:43:41;-2.14;63.45
70928;SHT31;58587;53.034;18.576;2024-01-16T14:46:07;-2.22;64.17
70928;SHT31;58587;53.034;18.576;2024-01-16T14:48:35;-2.28;65.20
70928;SHT31;58587;53.034;18.576;2024-01-16T14:51:00;-2.35;65.70
70928;SHT31;58587;53.034;18.576;2024-01-16T14:53:26;-2.40;65.22
70928;SHT31;58587;53.034;18.576;2024-01-16T14:55:51;-2.44;65.44
70928;SHT31;58587;53.034;18.576;2024-01-16T14:58:18;-2.46;66.13
70928;SHT31;58587;53.034;18.576;2024-01-16T15:00:48;-2.52;66.86
70928;SHT31;58587;53.034;18.576;2024-01-16T15:03:13;-2.61;67.72
70928;SHT31;58587;53.034;18.576;2024-01-16T15:05:39;-2.65;68.35
70928;SHT31;58587;53.034;18.576;2024-01-16T15:08:05;-2.72;69.30
70928;SHT31;58587;53.034;18.576;2024-01-16T15:10:31;-2.76;69.44
70928;SHT31;58587;53.034;18.576;2024-01-16T15:12:56;-2.76;69.56
70928;SHT31;58587;53.034;18.576;2024-01-16T15:15:21;-2.80;70.20
70928;SHT31;58587;53.034;18.576;2024-01-16T15:17:47;-2.87;70.44
70928;SHT31;58587;53.034;18.576;2024-01-16T15:20:14;-2.92;69.35
70928;SHT31;58587;53.034;18.576;2024-01-16T15:22:41;-2.99;68.76